Forside
METAR-TAF:

METAR-TAF

Lufthavne :

Ottumwa Industrial Airport

Ottumwa, Iowa, USA

Breddekreds: 41-06-24N, længdekreds: 092-26-53W, højde: 258 m

Aktuelle vejr

Denne rapport blev lavet for 34 minutter siden, kl. 16:53 UTC
Vind 5 kt fra varierende retninger
Temperatur 25°C
Fugtighed 54%
Tryk 1021 hPa
Sigt: 16.1 km
skyfri

METAR: KOTM 031653Z AUTO VRB05KT 10SM CLR 25/15 A3015 RMK AO2 SLP205 T02500150

Tid: 12:27 (17:27 UTC)

Vejrudsigter

Denne rapport blev lavet for 4 timer og 51 minutter siden, kl. 12:36 UTC
Foreløbig gælder fra 03 på 13 UTC til 04 på 12 UTC
Vind 4 kt fra varierende retninger
Sigt: 10 km
Nogle få skyer i en højde af 20000 ft

TAF: KOTM 031236Z 0313/0412 VRB04KT P6SM FEW200

Vejrobservationer og prognoser fra mere end 4000 lufthavne (METAR og TAF).

De gule og røde prikker repræsenterer de meteorologiske stationer.

Flyt musen over at se navnet på stationen.

Så klik over at se vejr observationer og prognoser.

At skifte det kort: Klik på de grønne knapper med et sort kors for at zoome ind; på den grønne knap med en bindestreg for at zoome ud; eller på de grønne pile for tilstødende kort.


METAR-TAF: